sensor_id;sensor_type;location;lat;lon;timestamp;P1;durP1;ratioP1;P2;durP2;ratioP2
18435;SDS011;9346;52.006;4.720;2023-05-10T00:00:11;20.53;;;11.57;;
18435;SDS011;9346;52.006;4.720;2023-05-10T00:02:38;28.33;;;15.43;;
18435;SDS011;9346;52.006;4.720;2023-05-10T00:05:07;22.33;;;13.53;;
18435;SDS011;9346;52.006;4.720;2023-05-10T00:07:34;21.20;;;12.20;;
18435;SDS011;9346;52.006;4.720;2023-05-10T00:10:01;24.47;;;14.20;;
18435;SDS011;9346;52.006;4.720;2023-05-10T00:12:30;24.37;;;13.47;;
18435;SDS011;9346;52.006;4.720;2023-05-10T00:14:57;27.57;;;15.17;;
18435;SDS011;9346;52.006;4.720;2023-05-10T00:17:24;23.87;;;13.60;;
18435;SDS011;9346;52.006;4.720;2023-05-10T00:19:51;23.83;;;14.20;;
18435;SDS011;9346;52.006;4.720;2023-05-10T00:22:19;21.73;;;12.47;;
18435;SDS011;9346;52.006;4.720;2023-05-10T00:24:46;21.53;;;11.70;;
18435;SDS011;9346;52.006;4.720;2023-05-10T00:27:14;21.97;;;12.23;;
18435;SDS011;9346;52.006;4.720;2023-05-10T00:29:40;20.20;;;11.70;;
18435;SDS011;9346;52.006;4.720;2023-05-10T00:32:08;24.20;;;13.40;;
18435;SDS011;9346;52.006;4.720;2023-05-10T00:34:38;26.20;;;14.20;;
18435;SDS011;9346;52.006;4.720;2023-05-10T00:37:07;23.67;;;15.03;;
18435;SDS011;9346;52.006;4.720;2023-05-10T00:39:35;25.27;;;13.73;;
18435;SDS011;9346;52.006;4.720;2023-05-10T00:42:03;23.63;;;13.27;;
18435;SDS011;9346;52.006;4.720;2023-05-10T00:44:30;27.90;;;14.90;;
18435;SDS011;9346;52.006;4.720;2023-05-10T00:46:57;30.73;;;15.73;;
18435;SDS011;9346;52.006;4.720;2023-05-10T00:49:25;23.77;;;14.57;;
18435;SDS011;9346;52.006;4.720;2023-05-10T00:51:53;26.03;;;14.43;;
18435;SDS011;9346;52.006;4.720;2023-05-10T00:54:23;29.43;;;14.43;;
18435;SDS011;9346;52.006;4.720;2023-05-10T00:56:52;30.67;;;16.40;;
18435;SDS011;9346;52.006;4.720;2023-05-10T00:59:19;36.27;;;16.93;;
18435;SDS011;9346;52.006;4.720;2023-05-10T01:01:47;34.07;;;17.33;;
18435;SDS011;9346;52.006;4.720;2023-05-10T01:04:14;31.57;;;16.77;;
18435;SDS011;9346;52.006;4.720;2023-05-10T01:06:42;37.00;;;19.00;;
18435;SDS011;9346;52.006;4.720;2023-05-10T01:09:09;35.47;;;17.77;;
18435;SDS011;9346;52.006;4.720;2023-05-10T01:11:38;39.27;;;18.63;;
18435;SDS011;9346;52.006;4.720;2023-05-10T01:14:08;33.97;;;17.07;;
18435;SDS011;9346;52.006;4.720;2023-05-10T01:16:37;33.80;;;19.37;;
18435;SDS011;9346;52.006;4.720;2023-05-10T01:19:08;44.13;;;21.43;;
18435;SDS011;9346;52.006;4.720;2023-05-10T01:21:46;44.10;;;19.93;;
18435;SDS011;9346;52.006;4.720;2023-05-10T01:24:27;37.57;;;18.87;;
18435;SDS011;9346;52.006;4.720;2023-05-10T01:27:25;37.57;;;20.40;;
18435;SDS011;9346;52.006;4.720;2023-05-10T01:30:25;37.80;;;19.70;;
18435;SDS011;9346;52.006;4.720;2023-05-10T01:33:12;41.43;;;18.97;;
18435;SDS011;9346;52.006;4.720;2023-05-10T01:35:47;42.77;;;20.13;;
18435;SDS011;9346;52.006;4.720;2023-05-10T01:38:22;41.07;;;18.53;;
18435;SDS011;9346;52.006;4.720;2023-05-10T01:40:59;40.23;;;19.17;;
18435;SDS011;9346;52.006;4.720;2023-05-10T01:44:04;40.13;;;21.67;;
18435;SDS011;9346;52.006;4.720;2023-05-10T01:46:38;49.27;;;20.93;;
18435;SDS011;9346;52.006;4.720;2023-05-10T01:49:07;45.77;;;19.90;;
18435;SDS011;9346;52.006;4.720;2023-05-10T01:51:38;41.90;;;20.63;;
18435;SDS011;9346;52.006;4.720;2023-05-10T01:54:09;37.73;;;20.07;;
18435;SDS011;9346;52.006;4.720;2023-05-10T01:56:38;41.43;;;20.70;;
18435;SDS011;9346;52.006;4.720;2023-05-10T01:59:11;43.83;;;21.13;;
18435;SDS011;9346;52.006;4.720;2023-05-10T02:01:41;38.23;;;19.67;;
18435;SDS011;9346;52.006;4.720;2023-05-10T02:04:11;40.43;;;19.90;;
18435;SDS011;9346;52.006;4.720;2023-05-10T02:06:41;36.33;;;19.10;;
18435;SDS011;9346;52.006;4.720;2023-05-10T02:09:10;44.13;;;20.17;;
18435;SDS011;9346;52.006;4.720;2023-05-10T02:11:39;41.53;;;21.73;;
18435;SDS011;9346;52.006;4.720;2023-05-10T02:14:11;47.07;;;20.80;;
18435;SDS011;9346;52.006;4.720;2023-05-10T02:16:40;38.50;;;20.73;;
18435;SDS011;9346;52.006;4.720;2023-05-10T02:19:08;46.37;;;20.03;;
18435;SDS011;9346;52.006;4.720;2023-05-10T02:21:37;44.87;;;21.57;;
18435;SDS011;9346;52.006;4.720;2023-05-10T02:24:05;39.03;;;20.37;;
18435;SDS011;9346;52.006;4.720;2023-05-10T02:26:34;42.60;;;21.77;;
18435;SDS011;9346;52.006;4.720;2023-05-10T02:29:02;43.47;;;21.20;;
18435;SDS011;9346;52.006;4.720;2023-05-10T02:31:36;41.90;;;20.40;;
18435;SDS011;9346;52.006;4.720;2023-05-10T02:34:03;46.13;;;21.90;;
18435;SDS011;9346;52.006;4.720;2023-05-10T02:36:32;43.77;;;20.47;;
18435;SDS011;9346;52.006;4.720;2023-05-10T02:38:59;36.70;;;20.60;;
18435;SDS011;9346;52.006;4.720;2023-05-10T02:41:28;49.73;;;21.60;;
18435;SDS011;9346;52.006;4.720;2023-05-10T02:43:59;36.67;;;20.50;;
18435;SDS011;9346;52.006;4.720;2023-05-10T02:46:27;47.73;;;22.23;;
18435;SDS011;9346;52.006;4.720;2023-05-10T02:48:56;37.80;;;20.93;;
18435;SDS011;9346;52.006;4.720;2023-05-10T02:51:24;38.87;;;20.83;;
18435;SDS011;9346;52.006;4.720;2023-05-10T02:53:55;44.93;;;22.30;;
18435;SDS011;9346;52.006;4.720;2023-05-10T02:56:25;54.67;;;23.60;;
18435;SDS011;9346;52.006;4.720;2023-05-10T02:59:02;50.03;;;21.97;;
18435;SDS011;9346;52.006;4.720;2023-05-10T03:01:29;44.67;;;22.07;;
18435;SDS011;9346;52.006;4.720;2023-05-10T03:03:57;54.97;;;23.73;;
18435;SDS011;9346;52.006;4.720;2023-05-10T03:06:24;52.93;;;25.43;;
18435;SDS011;9346;52.006;4.720;2023-05-10T03:08:52;50.67;;;21.83;;
18435;SDS011;9346;52.006;4.720;2023-05-10T03:11:24;47.57;;;23.13;;
18435;SDS011;9346;52.006;4.720;2023-05-10T03:14:03;48.40;;;22.73;;
18435;SDS011;9346;52.006;4.720;2023-05-10T03:16:40;43.37;;;23.80;;
18435;SDS011;9346;52.006;4.720;2023-05-10T03:19:14;53.53;;;24.83;;
18435;SDS011;9346;52.006;4.720;2023-05-10T03:21:46;40.77;;;22.23;;
18435;SDS011;9346;52.006;4.720;2023-05-10T03:24:16;49.90;;;24.97;;
18435;SDS011;9346;52.006;4.720;2023-05-10T03:26:46;52.73;;;25.17;;
18435;SDS011;9346;52.006;4.720;2023-05-10T03:29:15;50.40;;;26.93;;
18435;SDS011;9346;52.006;4.720;2023-05-10T03:31:42;56.67;;;27.10;;
18435;SDS011;9346;52.006;4.720;2023-05-10T03:34:09;46.97;;;26.37;;
18435;SDS011;9346;52.006;4.720;2023-05-10T03:36:38;52.20;;;26.50;;
18435;SDS011;9346;52.006;4.720;2023-05-10T03:39:05;56.77;;;28.00;;
18435;SDS011;9346;52.006;4.720;2023-05-10T03:41:32;60.30;;;27.00;;
18435;SDS011;9346;52.006;4.720;2023-05-10T03:43:59;51.20;;;25.97;;
18435;SDS011;9346;52.006;4.720;2023-05-10T03:46:26;49.43;;;26.83;;
18435;SDS011;9346;52.006;4.720;2023-05-10T03:48:53;46.57;;;26.40;;
18435;SDS011;9346;52.006;4.720;2023-05-10T03:51:20;53.60;;;25.80;;
18435;SDS011;9346;52.006;4.720;2023-05-10T03:53:48;47.60;;;25.00;;
18435;SDS011;9346;52.006;4.720;2023-05-10T03:56:15;52.37;;;26.23;;
18435;SDS011;9346;52.006;4.720;2023-05-10T03:58:42;52.57;;;26.20;;
18435;SDS011;9346;52.006;4.720;2023-05-10T04:01:09;51.27;;;25.90;;
18435;SDS011;9346;52.006;4.720;2023-05-10T04:03:36;54.30;;;25.47;;
18435;SDS011;9346;52.006;4.720;2023-05-10T04:06:04;53.07;;;26.17;;
18435;SDS011;9346;52.006;4.720;2023-05-10T04:08:33;61.03;;;27.87;;
18435;SDS011;9346;52.006;4.720;2023-05-10T04:11:08;58.30;;;28.57;;
18435;SDS011;9346;52.006;4.720;2023-05-10T04:13:37;60.23;;;27.53;;
18435;SDS011;9346;52.006;4.720;2023-05-10T04:16:04;59.47;;;28.13;;
18435;SDS011;9346;52.006;4.720;2023-05-10T04:18:32;63.07;;;27.03;;
18435;SDS011;9346;52.006;4.720;2023-05-10T04:20:59;51.60;;;27.97;;
18435;SDS011;9346;52.006;4.720;2023-05-10T04:23:26;52.10;;;25.00;;
18435;SDS011;9346;52.006;4.720;2023-05-10T04:25:58;49.57;;;25.17;;
18435;SDS011;9346;52.006;4.720;2023-05-10T04:28:27;45.90;;;23.97;;
18435;SDS011;9346;52.006;4.720;2023-05-10T04:31:00;41.47;;;23.90;;
18435;SDS011;9346;52.006;4.720;2023-05-10T04:33:27;45.43;;;24.23;;
18435;SDS011;9346;52.006;4.720;2023-05-10T04:35:54;45.70;;;24.50;;
18435;SDS011;9346;52.006;4.720;2023-05-10T04:38:21;40.30;;;24.23;;
18435;SDS011;9346;52.006;4.720;2023-05-10T04:40:48;41.07;;;24.60;;
18435;SDS011;9346;52.006;4.720;2023-05-10T04:43:17;52.67;;;26.37;;
18435;SDS011;9346;52.006;4.720;2023-05-10T04:45:46;50.37;;;29.50;;
18435;SDS011;9346;52.006;4.720;2023-05-10T04:48:13;53.43;;;28.07;;
18435;SDS011;9346;52.006;4.720;2023-05-10T04:50:40;50.87;;;28.50;;
18435;SDS011;9346;52.006;4.720;2023-05-10T04:53:07;55.67;;;28.27;;
18435;SDS011;9346;52.006;4.720;2023-05-10T04:55:34;53.03;;;28.33;;
18435;SDS011;9346;52.006;4.720;2023-05-10T04:58:01;50.73;;;27.83;;
18435;SDS011;9346;52.006;4.720;2023-05-10T05:00:28;52.80;;;28.63;;
18435;SDS011;9346;52.006;4.720;2023-05-10T05:02:56;42.17;;;25.70;;
18435;SDS011;9346;52.006;4.720;2023-05-10T05:05:23;43.10;;;26.23;;
18435;SDS011;9346;52.006;4.720;2023-05-10T05:07:50;43.87;;;23.03;;
18435;SDS011;9346;52.006;4.720;2023-05-10T05:10:18;45.07;;;24.07;;
18435;SDS011;9346;52.006;4.720;2023-05-10T05:12:45;36.00;;;22.17;;
18435;SDS011;9346;52.006;4.720;2023-05-10T05:15:12;44.70;;;23.60;;
18435;SDS011;9346;52.006;4.720;2023-05-10T05:17:40;45.77;;;21.53;;
18435;SDS011;9346;52.006;4.720;2023-05-10T05:20:09;37.33;;;20.93;;
18435;SDS011;9346;52.006;4.720;2023-05-10T05:22:38;38.70;;;21.87;;
18435;SDS011;9346;52.006;4.720;2023-05-10T05:25:05;40.73;;;20.50;;
18435;SDS011;9346;52.006;4.720;2023-05-10T05:27:33;40.47;;;21.63;;
18435;SDS011;9346;52.006;4.720;2023-05-10T05:30:00;40.20;;;19.93;;
18435;SDS011;9346;52.006;4.720;2023-05-10T05:32:27;35.93;;;18.43;;
18435;SDS011;9346;52.006;4.720;2023-05-10T05:34:54;36.93;;;18.10;;
18435;SDS011;9346;52.006;4.720;2023-05-10T05:37:23;33.13;;;17.67;;
18435;SDS011;9346;52.006;4.720;2023-05-10T05:39:50;30.70;;;15.43;;
18435;SDS011;9346;52.006;4.720;2023-05-10T05:42:17;33.10;;;16.87;;
18435;SDS011;9346;52.006;4.720;2023-05-10T05:44:44;34.27;;;17.13;;
18435;SDS011;9346;52.006;4.720;2023-05-10T05:47:11;29.77;;;15.87;;
18435;SDS011;9346;52.006;4.720;2023-05-10T05:49:39;31.60;;;17.67;;
18435;SDS011;9346;52.006;4.720;2023-05-10T05:52:06;31.43;;;17.63;;
18435;SDS011;9346;52.006;4.720;2023-05-10T05:54:34;28.13;;;15.37;;
18435;SDS011;9346;52.006;4.720;2023-05-10T05:57:01;28.10;;;14.80;;
18435;SDS011;9346;52.006;4.720;2023-05-10T05:59:29;26.57;;;14.93;;
18435;SDS011;9346;52.006;4.720;2023-05-10T06:01:56;22.27;;;13.43;;
18435;SDS011;9346;52.006;4.720;2023-05-10T06:04:23;23.07;;;13.13;;
18435;SDS011;9346;52.006;4.720;2023-05-10T06:06:50;18.40;;;11.67;;
18435;SDS011;9346;52.006;4.720;2023-05-10T06:09:17;26.53;;;13.33;;
18435;SDS011;9346;52.006;4.720;2023-05-10T06:11:46;16.53;;;10.53;;
18435;SDS011;9346;52.006;4.720;2023-05-10T06:14:13;19.40;;;10.70;;
18435;SDS011;9346;52.006;4.720;2023-05-10T06:16:40;19.20;;;10.30;;
18435;SDS011;9346;52.006;4.720;2023-05-10T06:19:10;16.60;;;9.87;;
18435;SDS011;9346;52.006;4.720;2023-05-10T06:21:38;22.30;;;10.63;;
18435;SDS011;9346;52.006;4.720;2023-05-10T06:24:05;24.17;;;11.07;;
18435;SDS011;9346;52.006;4.720;2023-05-10T06:26:33;26.73;;;11.50;;
18435;SDS011;9346;52.006;4.720;2023-05-10T06:29:03;19.77;;;11.77;;
18435;SDS011;9346;52.006;4.720;2023-05-10T06:31:30;18.87;;;9.63;;
18435;SDS011;9346;52.006;4.720;2023-05-10T06:33:59;16.00;;;8.43;;
18435;SDS011;9346;52.006;4.720;2023-05-10T06:36:26;12.50;;;7.40;;
18435;SDS011;9346;52.006;4.720;2023-05-10T06:38:53;16.33;;;8.83;;
18435;SDS011;9346;52.006;4.720;2023-05-10T06:41:20;15.00;;;8.13;;
18435;SDS011;9346;52.006;4.720;2023-05-10T06:43:47;12.83;;;7.23;;
18435;SDS011;9346;52.006;4.720;2023-05-10T06:46:15;11.87;;;6.53;;
18435;SDS011;9346;52.006;4.720;2023-05-10T06:48:42;12.07;;;7.33;;
18435;SDS011;9346;52.006;4.720;2023-05-10T06:51:09;14.53;;;7.20;;
18435;SDS011;9346;52.006;4.720;2023-05-10T06:53:36;11.47;;;7.07;;
18435;SDS011;9346;52.006;4.720;2023-05-10T06:56:03;9.87;;;6.23;;
18435;SDS011;9346;52.006;4.720;2023-05-10T06:58:31;7.20;;;5.43;;
18435;SDS011;9346;52.006;4.720;2023-05-10T07:01:01;10.57;;;5.17;;
18435;SDS011;9346;52.006;4.720;2023-05-10T07:03:33;8.50;;;5.53;;
18435;SDS011;9346;52.006;4.720;2023-05-10T07:06:00;8.17;;;5.67;;
18435;SDS011;9346;52.006;4.720;2023-05-10T07:08:29;10.17;;;5.77;;
18435;SDS011;9346;52.006;4.720;2023-05-10T07:11:00;9.53;;;5.67;;
18435;SDS011;9346;52.006;4.720;2023-05-10T07:13:28;7.83;;;5.37;;
18435;SDS011;9346;52.006;4.720;2023-05-10T07:15:56;9.97;;;6.10;;
18435;SDS011;9346;52.006;4.720;2023-05-10T07:18:23;7.80;;;4.90;;
18435;SDS011;9346;52.006;4.720;2023-05-10T07:20:52;8.83;;;5.97;;
18435;SDS011;9346;52.006;4.720;2023-05-10T07:23:19;7.90;;;5.23;;
18435;SDS011;9346;52.006;4.720;2023-05-10T07:25:46;7.93;;;4.93;;
18435;SDS011;9346;52.006;4.720;2023-05-10T07:28:13;6.60;;;5.13;;
18435;SDS011;9346;52.006;4.720;2023-05-10T07:30:40;7.13;;;5.03;;
18435;SDS011;9346;52.006;4.720;2023-05-10T07:33:08;7.73;;;5.30;;
18435;SDS011;9346;52.006;4.720;2023-05-10T07:35:35;8.03;;;4.10;;
18435;SDS011;9346;52.006;4.720;2023-05-10T07:38:03;6.37;;;4.90;;
18435;SDS011;9346;52.006;4.720;2023-05-10T07:40:30;5.40;;;4.20;;
18435;SDS011;9346;52.006;4.720;2023-05-10T07:42:58;6.93;;;4.47;;
18435;SDS011;9346;52.006;4.720;2023-05-10T07:45:26;6.53;;;4.57;;
18435;SDS011;9346;52.006;4.720;2023-05-10T07:47:53;6.03;;;4.20;;
18435;SDS011;9346;52.006;4.720;2023-05-10T07:50:22;4.87;;;3.73;;
18435;SDS011;9346;52.006;4.720;2023-05-10T07:52:49;6.70;;;4.47;;
18435;SDS011;9346;52.006;4.720;2023-05-10T07:55:19;5.33;;;4.30;;
18435;SDS011;9346;52.006;4.720;2023-05-10T07:57:46;5.83;;;4.17;;
18435;SDS011;9346;52.006;4.720;2023-05-10T08:00:14;7.00;;;4.03;;
18435;SDS011;9346;52.006;4.720;2023-05-10T08:02:44;5.70;;;3.70;;
18435;SDS011;9346;52.006;4.720;2023-05-10T08:05:11;5.97;;;3.53;;
18435;SDS011;9346;52.006;4.720;2023-05-10T08:07:39;6.43;;;4.63;;
18435;SDS011;9346;52.006;4.720;2023-05-10T08:10:07;6.03;;;4.13;;
18435;SDS011;9346;52.006;4.720;2023-05-10T08:12:37;6.83;;;4.40;;
18435;SDS011;9346;52.006;4.720;2023-05-10T08:15:05;5.27;;;3.80;;
18435;SDS011;9346;52.006;4.720;2023-05-10T08:17:33;4.70;;;3.77;;
18435;SDS011;9346;52.006;4.720;2023-05-10T08:20:00;5.27;;;4.20;;
18435;SDS011;9346;52.006;4.720;2023-05-10T08:22:28;5.43;;;3.90;;
18435;SDS011;9346;52.006;4.720;2023-05-10T08:24:55;6.90;;;4.53;;
18435;SDS011;9346;52.006;4.720;2023-05-10T08:27:22;7.43;;;5.23;;
18435;SDS011;9346;52.006;4.720;2023-05-10T08:29:51;6.47;;;4.60;;
18435;SDS011;9346;52.006;4.720;2023-05-10T08:32:20;6.97;;;4.40;;
18435;SDS011;9346;52.006;4.720;2023-05-10T08:34:47;9.40;;;5.67;;
18435;SDS011;9346;52.006;4.720;2023-05-10T08:37:14;5.87;;;4.13;;
18435;SDS011;9346;52.006;4.720;2023-05-10T08:39:41;7.90;;;4.67;;
18435;SDS011;9346;52.006;4.720;2023-05-10T08:42:10;8.67;;;4.93;;
18435;SDS011;9346;52.006;4.720;2023-05-10T08:44:38;5.77;;;4.03;;
18435;SDS011;9346;52.006;4.720;2023-05-10T08:47:08;6.10;;;4.07;;
18435;SDS011;9346;52.006;4.720;2023-05-10T08:49:36;5.53;;;3.57;;
18435;SDS011;9346;52.006;4.720;2023-05-10T08:52:04;6.60;;;4.40;;
18435;SDS011;9346;52.006;4.720;2023-05-10T08:54:32;5.53;;;3.93;;
18435;SDS011;9346;52.006;4.720;2023-05-10T08:57:00;5.57;;;3.70;;
18435;SDS011;9346;52.006;4.720;2023-05-10T08:59:28;7.33;;;4.43;;
18435;SDS011;9346;52.006;4.720;2023-05-10T09:01:55;7.83;;;4.13;;
18435;SDS011;9346;52.006;4.720;2023-05-10T09:04:25;5.93;;;4.37;;
18435;SDS011;9346;52.006;4.720;2023-05-10T09:06:53;7.20;;;3.80;;
18435;SDS011;9346;52.006;4.720;2023-05-10T09:09:20;4.83;;;3.80;;
18435;SDS011;9346;52.006;4.720;2023-05-10T09:11:47;7.60;;;4.40;;
18435;SDS011;9346;52.006;4.720;2023-05-10T09:14:15;5.20;;;4.00;;
18435;SDS011;9346;52.006;4.720;2023-05-10T09:16:42;6.37;;;4.20;;
18435;SDS011;9346;52.006;4.720;2023-05-10T09:19:10;4.90;;;3.80;;
18435;SDS011;9346;52.006;4.720;2023-05-10T09:21:38;7.70;;;4.10;;
18435;SDS011;9346;52.006;4.720;2023-05-10T09:24:08;6.00;;;3.47;;
18435;SDS011;9346;52.006;4.720;2023-05-10T09:26:35;4.50;;;3.67;;
18435;SDS011;9346;52.006;4.720;2023-05-10T09:29:13;5.93;;;4.13;;
18435;SDS011;9346;52.006;4.720;2023-05-10T09:31:44;7.10;;;4.53;;
18435;SDS011;9346;52.006;4.720;2023-05-10T09:34:15;5.60;;;4.13;;
18435;SDS011;9346;52.006;4.720;2023-05-10T09:42:58;9.13;;;5.43;;
18435;SDS011;9346;52.006;4.720;2023-05-10T09:45:27;6.97;;;4.83;;
18435;SDS011;9346;52.006;4.720;2023-05-10T09:47:55;8.07;;;4.30;;
18435;SDS011;9346;52.006;4.720;2023-05-10T09:50:23;9.43;;;4.03;;
18435;SDS011;9346;52.006;4.720;2023-05-10T09:52:53;6.63;;;4.23;;
18435;SDS011;9346;52.006;4.720;2023-05-10T09:55:37;7.20;;;4.27;;
18435;SDS011;9346;52.006;4.720;2023-05-10T09:58:06;5.43;;;3.90;;
18435;SDS011;9346;52.006;4.720;2023-05-10T10:00:35;5.43;;;4.37;;
18435;SDS011;9346;52.006;4.720;2023-05-10T10:03:05;6.43;;;3.57;;
18435;SDS011;9346;52.006;4.720;2023-05-10T10:05:33;5.63;;;3.60;;
18435;SDS011;9346;52.006;4.720;2023-05-10T10:08:04;8.73;;;4.07;;
18435;SDS011;9346;52.006;4.720;2023-05-10T10:10:32;7.87;;;4.03;;
18435;SDS011;9346;52.006;4.720;2023-05-10T10:12:59;5.93;;;4.03;;
18435;SDS011;9346;52.006;4.720;2023-05-10T10:15:26;6.20;;;4.40;;
18435;SDS011;9346;52.006;4.720;2023-05-10T10:17:53;6.13;;;4.17;;
18435;SDS011;9346;52.006;4.720;2023-05-10T10:20:21;5.70;;;3.33;;
18435;SDS011;9346;52.006;4.720;2023-05-10T10:22:50;6.97;;;3.50;;
18435;SDS011;9346;52.006;4.720;2023-05-10T10:25:19;7.43;;;6.00;;
18435;SDS011;9346;52.006;4.720;2023-05-10T10:27:49;8.67;;;6.60;;
18435;SDS011;9346;52.006;4.720;2023-05-10T10:30:31;12.40;;;6.40;;
18435;SDS011;9346;52.006;4.720;2023-05-10T10:36:00;10.70;;;7.80;;
18435;SDS011;9346;52.006;4.720;2023-05-10T10:38:54;12.63;;;7.83;;
18435;SDS011;9346;52.006;4.720;2023-05-10T10:41:30;8.97;;;6.70;;
18435;SDS011;9346;52.006;4.720;2023-05-10T10:47:13;7.70;;;5.63;;
18435;SDS011;9346;52.006;4.720;2023-05-10T10:50:04;6.63;;;5.13;;
18435;SDS011;9346;52.006;4.720;2023-05-10T10:52:33;6.60;;;4.30;;
18435;SDS011;9346;52.006;4.720;2023-05-10T10:55:02;6.63;;;4.50;;
18435;SDS011;9346;52.006;4.720;2023-05-10T10:57:43;6.07;;;4.60;;
18435;SDS011;9346;52.006;4.720;2023-05-10T11:00:23;5.77;;;4.23;;
18435;SDS011;9346;52.006;4.720;2023-05-10T11:02:52;6.40;;;4.50;;
18435;SDS011;9346;52.006;4.720;2023-05-10T11:05:24;5.07;;;4.20;;
18435;SDS011;9346;52.006;4.720;2023-05-10T11:07:52;6.07;;;3.80;;
18435;SDS011;9346;52.006;4.720;2023-05-10T11:10:21;6.77;;;4.63;;
18435;SDS011;9346;52.006;4.720;2023-05-10T11:12:56;8.27;;;4.87;;
18435;SDS011;9346;52.006;4.720;2023-05-10T11:15:30;7.37;;;4.97;;
18435;SDS011;9346;52.006;4.720;2023-05-10T11:17:57;6.80;;;4.43;;
18435;SDS011;9346;52.006;4.720;2023-05-10T11:20:27;6.93;;;4.63;;
18435;SDS011;9346;52.006;4.720;2023-05-10T11:23:00;7.27;;;4.73;;
18435;SDS011;9346;52.006;4.720;2023-05-10T11:25:41;7.57;;;4.73;;
18435;SDS011;9346;52.006;4.720;2023-05-10T11:28:10;5.77;;;3.77;;
18435;SDS011;9346;52.006;4.720;2023-05-10T11:30:38;6.00;;;3.80;;
18435;SDS011;9346;52.006;4.720;2023-05-10T11:33:06;5.73;;;4.17;;
18435;SDS011;9346;52.006;4.720;2023-05-10T11:35:37;5.50;;;3.63;;
18435;SDS011;9346;52.006;4.720;2023-05-10T11:38:06;3.97;;;3.30;;
18435;SDS011;9346;52.006;4.720;2023-05-10T11:40:33;6.37;;;4.50;;
18435;SDS011;9346;52.006;4.720;2023-05-10T11:43:00;5.87;;;3.90;;
18435;SDS011;9346;52.006;4.720;2023-05-10T11:45:30;5.73;;;3.60;;
18435;SDS011;9346;52.006;4.720;2023-05-10T11:47:59;5.00;;;3.50;;
18435;SDS011;9346;52.006;4.720;2023-05-10T11:50:27;5.03;;;3.63;;
18435;SDS011;9346;52.006;4.720;2023-05-10T11:52:57;7.07;;;3.83;;
18435;SDS011;9346;52.006;4.720;2023-05-10T11:55:25;4.47;;;3.93;;
18435;SDS011;9346;52.006;4.720;2023-05-10T11:57:52;4.53;;;3.47;;
18435;SDS011;9346;52.006;4.720;2023-05-10T12:00:19;4.37;;;3.30;;
18435;SDS011;9346;52.006;4.720;2023-05-10T12:02:48;5.90;;;4.17;;
18435;SDS011;9346;52.006;4.720;2023-05-10T12:05:15;5.23;;;3.63;;
18435;SDS011;9346;52.006;4.720;2023-05-10T12:07:43;8.43;;;4.60;;
18435;SDS011;9346;52.006;4.720;2023-05-10T12:10:10;4.67;;;3.83;;
18435;SDS011;9346;52.006;4.720;2023-05-10T12:12:40;6.93;;;4.07;;
18435;SDS011;9346;52.006;4.720;2023-05-10T12:15:11;6.40;;;4.20;;
18435;SDS011;9346;52.006;4.720;2023-05-10T12:17:43;7.60;;;4.20;;
18435;SDS011;9346;52.006;4.720;2023-05-10T12:20:16;6.97;;;4.30;;
18435;SDS011;9346;52.006;4.720;2023-05-10T12:22:45;8.77;;;4.73;;
18435;SDS011;9346;52.006;4.720;2023-05-10T12:25:13;7.03;;;4.93;;
18435;SDS011;9346;52.006;4.720;2023-05-10T12:27:46;5.03;;;4.10;;
18435;SDS011;9346;52.006;4.720;2023-05-10T12:30:18;5.43;;;4.23;;
18435;SDS011;9346;52.006;4.720;2023-05-10T12:32:47;7.53;;;4.40;;
18435;SDS011;9346;52.006;4.720;2023-05-10T12:35:16;6.97;;;5.57;;
18435;SDS011;9346;52.006;4.720;2023-05-10T12:37:46;6.17;;;4.43;;
18435;SDS011;9346;52.006;4.720;2023-05-10T12:40:14;5.83;;;3.73;;
18435;SDS011;9346;52.006;4.720;2023-05-10T12:42:41;5.47;;;4.13;;
18435;SDS011;9346;52.006;4.720;2023-05-10T12:45:10;5.80;;;4.20;;
18435;SDS011;9346;52.006;4.720;2023-05-10T12:47:37;5.60;;;4.20;;
18435;SDS011;9346;52.006;4.720;2023-05-10T12:50:04;5.50;;;4.67;;
18435;SDS011;9346;52.006;4.720;2023-05-10T12:52:35;5.23;;;3.77;;
18435;SDS011;9346;52.006;4.720;2023-05-10T12:55:02;5.60;;;4.10;;
18435;SDS011;9346;52.006;4.720;2023-05-10T12:57:29;6.87;;;3.73;;
18435;SDS011;9346;52.006;4.720;2023-05-10T12:59:57;4.70;;;3.77;;
18435;SDS011;9346;52.006;4.720;2023-05-10T13:02:24;4.37;;;3.30;;
18435;SDS011;9346;52.006;4.720;2023-05-10T13:04:51;4.17;;;3.67;;
18435;SDS011;9346;52.006;4.720;2023-05-10T13:07:17;7.37;;;4.23;;
18435;SDS011;9346;52.006;4.720;2023-05-10T13:09:47;6.83;;;3.30;;
18435;SDS011;9346;52.006;4.720;2023-05-10T13:12:14;6.77;;;3.93;;
18435;SDS011;9346;52.006;4.720;2023-05-10T13:14:41;5.93;;;3.47;;
18435;SDS011;9346;52.006;4.720;2023-05-10T13:17:08;6.67;;;3.50;;
18435;SDS011;9346;52.006;4.720;2023-05-10T13:19:35;4.47;;;2.90;;
18435;SDS011;9346;52.006;4.720;2023-05-10T13:22:02;3.93;;;3.30;;
18435;SDS011;9346;52.006;4.720;2023-05-10T13:24:29;5.87;;;3.37;;
18435;SDS011;9346;52.006;4.720;2023-05-10T13:26:58;4.73;;;3.60;;
18435;SDS011;9346;52.006;4.720;2023-05-10T13:29:25;6.17;;;3.83;;
18435;SDS011;9346;52.006;4.720;2023-05-10T13:31:51;5.90;;;3.50;;
18435;SDS011;9346;52.006;4.720;2023-05-10T13:34:18;5.57;;;4.30;;
18435;SDS011;9346;52.006;4.720;2023-05-10T13:36:47;5.90;;;3.93;;
18435;SDS011;9346;52.006;4.720;2023-05-10T13:39:14;7.10;;;4.33;;
18435;SDS011;9346;52.006;4.720;2023-05-10T13:41:42;8.20;;;4.50;;
18435;SDS011;9346;52.006;4.720;2023-05-10T13:44:11;5.43;;;4.03;;
18435;SDS011;9346;52.006;4.720;2023-05-10T13:46:38;5.83;;;4.03;;
18435;SDS011;9346;52.006;4.720;2023-05-10T13:49:06;6.17;;;4.27;;
18435;SDS011;9346;52.006;4.720;2023-05-10T13:51:33;7.93;;;4.10;;
18435;SDS011;9346;52.006;4.720;2023-05-10T13:54:00;5.70;;;4.00;;
18435;SDS011;9346;52.006;4.720;2023-05-10T13:56:28;5.90;;;4.27;;
18435;SDS011;9346;52.006;4.720;2023-05-10T13:58:55;5.17;;;3.53;;
18435;SDS011;9346;52.006;4.720;2023-05-10T14:01:25;5.57;;;3.47;;
18435;SDS011;9346;52.006;4.720;2023-05-10T14:03:52;5.43;;;3.23;;
18435;SDS011;9346;52.006;4.720;2023-05-10T14:06:18;5.80;;;3.00;;
18435;SDS011;9346;52.006;4.720;2023-05-10T14:08:45;6.40;;;3.80;;
18435;SDS011;9346;52.006;4.720;2023-05-10T14:11:12;5.87;;;3.67;;
18435;SDS011;9346;52.006;4.720;2023-05-10T14:13:39;3.80;;;2.60;;
18435;SDS011;9346;52.006;4.720;2023-05-10T14:16:07;5.70;;;2.97;;
18435;SDS011;9346;52.006;4.720;2023-05-10T14:18:36;5.40;;;3.07;;
18435;SDS011;9346;52.006;4.720;2023-05-10T14:21:03;3.90;;;2.93;;
18435;SDS011;9346;52.006;4.720;2023-05-10T14:23:31;4.67;;;2.90;;
18435;SDS011;9346;52.006;4.720;2023-05-10T14:25:58;4.33;;;3.17;;
18435;SDS011;9346;52.006;4.720;2023-05-10T14:28:25;3.70;;;3.17;;
18435;SDS011;9346;52.006;4.720;2023-05-10T14:30:52;4.00;;;3.07;;
18435;SDS011;9346;52.006;4.720;2023-05-10T14:33:19;3.93;;;2.93;;
18435;SDS011;9346;52.006;4.720;2023-05-10T14:35:48;9.17;;;3.53;;
18435;SDS011;9346;52.006;4.720;2023-05-10T14:38:15;4.40;;;3.20;;
18435;SDS011;9346;52.006;4.720;2023-05-10T14:40:42;5.60;;;3.60;;
18435;SDS011;9346;52.006;4.720;2023-05-10T14:43:10;3.83;;;3.13;;
18435;SDS011;9346;52.006;4.720;2023-05-10T14:45:37;4.93;;;2.50;;
18435;SDS011;9346;52.006;4.720;2023-05-10T14:48:03;3.97;;;3.23;;
18435;SDS011;9346;52.006;4.720;2023-05-10T14:50:36;3.30;;;2.70;;
18435;SDS011;9346;52.006;4.720;2023-05-10T14:53:06;4.23;;;2.83;;
18435;SDS011;9346;52.006;4.720;2023-05-10T14:55:34;2.60;;;2.30;;
18435;SDS011;9346;52.006;4.720;2023-05-10T14:58:02;3.50;;;2.70;;
18435;SDS011;9346;52.006;4.720;2023-05-10T15:00:29;3.50;;;2.97;;
18435;SDS011;9346;52.006;4.720;2023-05-10T15:02:57;3.77;;;2.83;;
18435;SDS011;9346;52.006;4.720;2023-05-10T15:05:24;3.97;;;2.53;;
18435;SDS011;9346;52.006;4.720;2023-05-10T15:07:51;3.37;;;2.70;;
18435;SDS011;9346;52.006;4.720;2023-05-10T15:10:20;4.23;;;3.10;;